createdAt,value
2022-10-04T00:00:53.538Z,8.91
2022-10-04T00:01:53.555Z,8.91
2022-10-04T00:02:53.531Z,8.91
2022-10-04T00:03:53.508Z,8.89
2022-10-04T00:04:53.488Z,8.89
2022-10-04T00:05:53.425Z,8.91
2022-10-04T00:06:53.450Z,8.89
2022-10-04T00:07:53.422Z,8.88
2022-10-04T00:08:53.431Z,8.89
2022-10-04T00:09:53.401Z,8.91
2022-10-04T00:10:53.406Z,8.94
2022-10-04T00:11:53.414Z,8.95
2022-10-04T00:12:53.394Z,8.97
2022-10-04T00:13:53.377Z,8.99
2022-10-04T00:14:53.354Z,8.97
2022-10-04T00:15:53.369Z,9.02
2022-10-04T00:16:53.322Z,9.02
2022-10-04T00:17:53.301Z,9.02
2022-10-04T00:18:53.361Z,9.03
2022-10-04T00:19:53.298Z,9.02
2022-10-04T00:20:53.441Z,9.03
2022-10-04T00:21:53.273Z,9.04
2022-10-04T00:22:53.288Z,9.04
2022-10-04T00:23:53.258Z,9.06
2022-10-04T00:24:53.262Z,9.08
2022-10-04T00:25:53.264Z,9.10
2022-10-04T00:26:53.242Z,9.04
2022-10-04T00:27:53.272Z,9.08
2022-10-04T00:28:53.264Z,9.06
2022-10-04T00:29:53.194Z,9.04
2022-10-04T00:30:53.223Z,9.06
2022-10-04T00:31:53.233Z,9.06
2022-10-04T00:32:53.181Z,9.03
2022-10-04T00:33:53.171Z,9.04
2022-10-04T00:34:53.171Z,9.04
2022-10-04T00:35:53.160Z,9.03
2022-10-04T00:36:53.119Z,9.04
2022-10-04T00:37:53.116Z,9.03
2022-10-04T00:38:53.087Z,9.03
2022-10-04T00:39:53.127Z,9.04
2022-10-04T00:40:53.094Z,9.06
2022-10-04T00:41:53.111Z,9.04
2022-10-04T00:42:53.084Z,9.06
2022-10-04T00:43:53.072Z,9.06
2022-10-04T00:44:53.071Z,9.06
2022-10-04T00:45:53.086Z,9.11
2022-10-04T00:46:53.042Z,9.10
2022-10-04T00:47:53.018Z,9.11
2022-10-04T00:48:53.003Z,9.10
2022-10-04T00:49:53.000Z,9.13
2022-10-04T00:50:52.976Z,9.13
2022-10-04T00:51:52.989Z,9.13
2022-10-04T00:52:52.956Z,9.14
2022-10-04T00:53:52.937Z,9.16
2022-10-04T00:54:52.929Z,9.18
2022-10-04T00:55:52.928Z,9.18
2022-10-04T00:56:52.895Z,9.19
2022-10-04T00:57:52.908Z,9.21
2022-10-04T00:58:52.909Z,9.21
2022-10-04T00:59:52.889Z,9.19
2022-10-04T01:00:52.868Z,9.21
2022-10-04T01:01:52.880Z,9.21
2022-10-04T01:02:52.844Z,9.19
2022-10-04T01:05:34.849Z,9.21
2022-10-04T01:07:35.282Z,9.23
2022-10-04T01:08:36.274Z,9.23
2022-10-04T01:09:36.244Z,9.25
2022-10-04T01:10:36.258Z,9.26
2022-10-04T01:11:36.233Z,9.25
2022-10-04T01:12:36.238Z,9.25
2022-10-04T01:13:36.199Z,9.25
2022-10-04T01:14:36.205Z,9.25
2022-10-04T01:15:36.281Z,9.23
2022-10-04T01:16:36.194Z,9.23
2022-10-04T01:17:36.174Z,9.23
2022-10-04T01:18:36.144Z,9.23
2022-10-04T01:19:36.175Z,9.22
2022-10-04T01:21:07.905Z,9.22
2022-10-04T01:21:36.234Z,9.23
2022-10-04T01:22:36.219Z,9.22
2022-10-04T01:23:36.212Z,9.22
2022-10-04T01:24:36.093Z,9.22
2022-10-04T01:25:36.110Z,9.23
2022-10-04T01:26:36.117Z,9.21
2022-10-04T01:27:36.117Z,9.23
2022-10-04T01:28:36.117Z,9.22
2022-10-04T01:29:36.066Z,9.21
2022-10-04T01:30:36.038Z,9.21
2022-10-04T01:31:36.086Z,9.23
2022-10-04T01:32:36.080Z,9.22
2022-10-04T01:33:36.014Z,9.23
2022-10-04T01:34:36.003Z,9.23
2022-10-04T01:35:36.000Z,9.25
2022-10-04T01:36:35.993Z,9.25
2022-10-04T01:37:35.967Z,9.28
2022-10-04T01:38:35.958Z,9.26
2022-10-04T01:39:35.945Z,9.29
2022-10-04T01:40:35.950Z,9.26
2022-10-04T01:41:35.923Z,9.29
2022-10-04T01:42:35.928Z,9.28
2022-10-04T01:43:35.920Z,9.26
2022-10-04T01:44:35.951Z,9.26
2022-10-04T01:45:35.886Z,9.28
2022-10-04T01:46:35.917Z,9.28
2022-10-04T01:47:35.867Z,9.25
2022-10-04T01:48:35.864Z,9.28
2022-10-04T01:49:35.855Z,9.23
2022-10-04T01:50:35.829Z,9.21
2022-10-04T01:51:35.816Z,9.19
2022-10-04T01:52:35.799Z,9.18
2022-10-04T01:53:35.810Z,9.18
2022-10-04T01:54:35.799Z,9.16
2022-10-04T01:55:35.808Z,9.16
2022-10-04T01:56:35.763Z,9.18
2022-10-04T01:57:35.774Z,9.16
2022-10-04T01:58:35.747Z,9.16
2022-10-04T01:59:35.729Z,9.18
2022-10-04T02:00:35.740Z,9.16
2022-10-04T02:01:35.772Z,9.18
2022-10-04T02:02:35.742Z,9.18
2022-10-04T02:03:35.746Z,9.16
2022-10-04T02:04:35.757Z,9.18
2022-10-04T02:05:35.680Z,9.18
2022-10-04T02:06:35.676Z,9.18
2022-10-04T02:07:35.921Z,9.21
2022-10-04T02:08:35.652Z,9.18
2022-10-04T02:09:35.656Z,9.19
2022-10-04T02:10:37.745Z,9.19
2022-10-04T02:11:35.605Z,9.19
2022-10-04T02:12:35.584Z,9.19
2022-10-04T02:13:35.632Z,9.21
2022-10-04T02:14:35.562Z,9.21
2022-10-04T02:15:35.637Z,9.19
2022-10-04T02:16:35.536Z,9.19
2022-10-04T02:17:35.548Z,9.21
2022-10-04T02:18:35.527Z,9.19
2022-10-04T02:19:35.540Z,9.21
2022-10-04T02:20:35.514Z,9.19
2022-10-04T02:21:35.523Z,9.22
2022-10-04T02:22:35.487Z,9.21
2022-10-04T02:23:35.497Z,9.21
2022-10-04T02:24:35.480Z,9.21
2022-10-04T02:25:35.451Z,9.19
2022-10-04T02:26:35.474Z,9.21
2022-10-04T02:27:35.488Z,9.21
2022-10-04T02:28:35.526Z,9.16
2022-10-04T02:29:35.424Z,9.16
2022-10-04T02:30:35.395Z,9.16
2022-10-04T02:31:35.488Z,9.18
2022-10-04T02:32:35.417Z,9.19
2022-10-04T02:33:35.361Z,9.19
2022-10-04T02:34:35.388Z,9.21
2022-10-04T02:35:35.366Z,9.19
2022-10-04T02:36:35.366Z,9.22
2022-10-04T02:37:35.356Z,9.22
2022-10-04T02:38:35.417Z,9.21
2022-10-04T02:39:35.306Z,9.23
2022-10-04T02:40:35.323Z,9.22
2022-10-04T02:41:35.284Z,9.22
2022-10-04T02:42:35.297Z,9.23
2022-10-04T02:43:35.267Z,9.23
2022-10-04T02:44:35.294Z,9.25
2022-10-04T02:45:35.277Z,9.25
2022-10-04T02:46:35.352Z,9.23
2022-10-04T02:47:35.262Z,9.22
2022-10-04T02:48:35.231Z,9.22
2022-10-04T02:49:35.187Z,9.23
2022-10-04T02:50:35.211Z,9.21
2022-10-04T02:51:35.214Z,9.21
2022-10-04T02:52:35.205Z,9.19
2022-10-04T02:53:35.215Z,9.18
2022-10-04T02:54:35.188Z,9.19
2022-10-04T02:55:35.182Z,9.18
2022-10-04T02:56:35.114Z,9.19
2022-10-04T02:57:35.108Z,9.21
2022-10-04T02:58:35.140Z,9.22
2022-10-04T02:59:35.599Z,9.22
2022-10-04T03:00:35.117Z,9.22
2022-10-04T03:01:35.087Z,9.21
2022-10-04T03:02:35.119Z,9.21
2022-10-04T03:03:35.046Z,9.18
2022-10-04T03:04:35.078Z,9.19
2022-10-04T03:05:35.025Z,9.18
2022-10-04T03:06:35.040Z,9.18
2022-10-04T03:07:35.007Z,9.18
2022-10-04T03:08:35.061Z,9.13
2022-10-04T03:09:34.999Z,9.14
2022-10-04T03:10:34.972Z,9.14
2022-10-04T03:11:35.039Z,9.14
2022-10-04T03:12:35.003Z,9.11
2022-10-04T03:13:34.947Z,9.11
2022-10-04T03:14:34.943Z,9.11
2022-10-04T03:15:34.929Z,9.06
2022-10-04T03:16:34.961Z,9.10
2022-10-04T03:17:34.919Z,9.04
2022-10-04T03:18:34.911Z,9.03
2022-10-04T03:19:34.917Z,9.02
2022-10-04T03:20:34.886Z,8.99
2022-10-04T03:21:34.907Z,8.99
2022-10-04T03:22:34.870Z,8.95
2022-10-04T03:23:34.834Z,8.97
2022-10-04T03:24:34.912Z,8.92
2022-10-04T03:25:34.830Z,8.88
2022-10-04T03:26:34.814Z,8.87
2022-10-04T03:27:34.812Z,8.85
2022-10-04T03:28:34.887Z,8.84
2022-10-04T03:29:34.816Z,8.79
2022-10-04T03:30:34.802Z,8.78
2022-10-04T03:31:34.807Z,8.76
2022-10-04T03:32:34.776Z,8.76
2022-10-04T03:33:34.744Z,8.73
2022-10-04T03:34:34.748Z,8.73
2022-10-04T03:35:34.791Z,8.70
2022-10-04T03:36:34.729Z,8.70
2022-10-04T03:37:34.679Z,8.69
2022-10-04T03:38:34.715Z,8.66
2022-10-04T03:39:34.698Z,8.66
2022-10-04T03:40:34.704Z,8.64
2022-10-04T03:41:34.667Z,8.61
2022-10-04T03:42:34.675Z,8.63
2022-10-04T03:43:34.632Z,8.60
2022-10-04T03:44:34.636Z,8.60
2022-10-04T03:45:34.663Z,8.60
2022-10-04T03:46:34.630Z,8.56
2022-10-04T03:47:34.641Z,8.55
2022-10-04T03:48:34.606Z,8.53
2022-10-04T03:49:34.587Z,8.53
2022-10-04T03:50:34.575Z,8.48
2022-10-04T03:51:34.573Z,8.46
2022-10-04T03:52:34.555Z,8.42
2022-10-04T03:53:34.562Z,8.41
2022-10-04T03:54:34.574Z,8.38
2022-10-04T03:55:34.500Z,8.36
2022-10-04T03:56:34.540Z,8.34
2022-10-04T03:57:34.492Z,8.33
2022-10-04T03:58:34.525Z,8.31
2022-10-04T03:59:34.483Z,8.30
2022-10-04T04:00:34.457Z,8.28
2022-10-04T04:01:34.515Z,8.30
2022-10-04T04:02:34.529Z,8.30
2022-10-04T04:03:34.488Z,8.27
2022-10-04T04:04:34.432Z,8.28
2022-10-04T04:05:34.440Z,8.27
2022-10-04T04:06:34.438Z,8.27
2022-10-04T04:07:34.421Z,8.24
2022-10-04T04:08:34.445Z,8.20
2022-10-04T04:09:34.395Z,8.16
2022-10-04T04:10:34.374Z,8.15
2022-10-04T04:11:34.377Z,8.12
2022-10-04T04:12:34.386Z,8.12
2022-10-04T04:13:34.361Z,8.10
2022-10-04T04:14:34.327Z,8.06
2022-10-04T04:15:34.333Z,8.05
2022-10-04T04:16:34.413Z,8.06
2022-10-04T04:17:34.287Z,8.03
2022-10-04T04:18:34.282Z,8.03
2022-10-04T04:19:34.282Z,8.03
2022-10-04T04:20:34.254Z,8.03
2022-10-04T04:21:34.308Z,8.03
2022-10-04T04:22:34.251Z,8.01
2022-10-04T04:23:34.265Z,8.00
2022-10-04T04:24:34.239Z,7.98
2022-10-04T04:25:34.231Z,7.98
2022-10-04T04:26:34.208Z,7.97
2022-10-04T04:27:34.242Z,7.95
2022-10-04T04:28:34.247Z,7.93
2022-10-04T04:29:34.182Z,7.90
2022-10-04T04:30:34.157Z,7.88
2022-10-04T04:31:34.198Z,7.90
2022-10-04T04:32:34.155Z,7.87
2022-10-04T04:33:34.142Z,7.85
2022-10-04T04:34:34.124Z,7.87
2022-10-04T04:35:34.152Z,7.85
2022-10-04T04:36:34.147Z,7.85
2022-10-04T04:37:34.106Z,7.83
2022-10-04T04:38:34.113Z,7.85
2022-10-04T04:39:34.085Z,7.82
2022-10-04T04:40:34.125Z,7.80
2022-10-04T04:41:34.101Z,7.80
2022-10-04T04:42:34.076Z,7.80
2022-10-04T04:43:34.020Z,7.79
2022-10-04T04:44:34.043Z,7.77
2022-10-04T04:45:34.074Z,7.73
2022-10-04T04:46:34.109Z,7.73
2022-10-04T04:47:34.124Z,7.70
2022-10-04T04:48:34.003Z,7.63
2022-10-04T04:49:34.016Z,7.58
2022-10-04T04:50:33.976Z,7.56
2022-10-04T04:51:33.979Z,7.56
2022-10-04T04:52:33.948Z,7.54
2022-10-04T04:53:33.918Z,7.56
2022-10-04T04:54:33.972Z,7.54
2022-10-04T04:55:50.007Z,7.53
2022-10-04T04:56:34.015Z,7.53
2022-10-04T04:57:33.922Z,7.51
2022-10-04T04:58:33.911Z,7.53
2022-10-04T04:59:33.887Z,7.51
2022-10-04T05:00:33.914Z,7.53
2022-10-04T05:01:33.884Z,7.53
2022-10-04T05:02:33.925Z,7.51
2022-10-04T05:03:33.862Z,7.54
2022-10-04T05:04:33.840Z,7.56
2022-10-04T05:05:33.793Z,7.56
2022-10-04T05:06:33.794Z,7.58
2022-10-04T05:07:33.762Z,7.58
2022-10-04T05:08:38.746Z,7.60
2022-10-04T05:09:33.790Z,7.60
2022-10-04T05:10:33.713Z,7.60
2022-10-04T05:11:33.745Z,7.61
2022-10-04T05:12:33.692Z,7.60
2022-10-04T05:13:33.697Z,7.57
2022-10-04T05:14:33.693Z,7.56
2022-10-04T05:15:33.688Z,7.53
2022-10-04T05:16:33.673Z,7.53
2022-10-04T05:17:33.643Z,7.51
2022-10-04T05:18:33.645Z,7.51
2022-10-04T05:19:33.642Z,7.50
2022-10-04T05:20:33.626Z,7.50
2022-10-04T05:21:33.638Z,7.50
2022-10-04T05:22:33.639Z,7.50
2022-10-04T05:23:33.616Z,7.50
2022-10-04T05:24:33.592Z,7.51
2022-10-04T05:25:33.590Z,7.50
2022-10-04T05:26:33.589Z,7.51
2022-10-04T05:27:33.549Z,7.51
2022-10-04T05:28:33.601Z,7.53
2022-10-04T05:29:33.525Z,7.53
2022-10-04T05:30:33.544Z,7.50
2022-10-04T05:31:33.599Z,7.45
2022-10-04T05:32:33.578Z,7.40
2022-10-04T05:33:34.026Z,7.36
2022-10-04T05:34:33.539Z,7.33
2022-10-04T05:35:33.484Z,7.35
2022-10-04T05:36:33.500Z,7.35
2022-10-04T05:37:33.449Z,7.33
2022-10-04T05:38:33.427Z,7.35
2022-10-04T05:39:33.413Z,7.35
2022-10-04T05:40:33.433Z,7.33
2022-10-04T05:41:33.765Z,7.32
2022-10-04T05:42:33.414Z,7.32
2022-10-04T05:43:33.390Z,7.28
2022-10-04T05:44:33.402Z,7.28
2022-10-04T05:45:33.407Z,7.24
2022-10-04T05:46:33.397Z,7.24
2022-10-04T05:47:33.400Z,7.24
2022-10-04T05:48:33.360Z,7.25
2022-10-04T05:49:33.348Z,7.25
2022-10-04T05:50:33.348Z,7.28
2022-10-04T05:51:33.322Z,7.28
2022-10-04T05:52:33.297Z,7.28
2022-10-04T05:53:33.303Z,7.29
2022-10-04T05:54:33.299Z,7.25
2022-10-04T05:55:33.293Z,7.29
2022-10-04T05:56:33.269Z,7.28
2022-10-04T05:57:33.293Z,7.29
2022-10-04T05:58:33.283Z,7.31
2022-10-04T05:59:33.223Z,7.31
2022-10-04T06:00:33.230Z,7.29
2022-10-04T06:01:33.309Z,7.28
2022-10-04T06:02:33.285Z,7.24
2022-10-04T06:03:33.198Z,7.21
2022-10-04T06:04:33.187Z,7.21
2022-10-04T06:05:33.215Z,7.23
2022-10-04T06:06:33.151Z,7.23
2022-10-04T06:07:33.155Z,7.25
2022-10-04T06:08:33.154Z,7.28
2022-10-04T06:09:33.144Z,7.29
2022-10-04T06:10:33.144Z,7.32
2022-10-04T06:11:33.135Z,7.35
2022-10-04T06:12:33.102Z,7.33
2022-10-04T06:13:33.080Z,7.35
2022-10-04T06:14:33.080Z,7.36
2022-10-04T06:15:33.083Z,7.39
2022-10-04T06:16:33.119Z,7.39
2022-10-04T06:17:33.068Z,7.40
2022-10-04T06:18:33.069Z,7.43
2022-10-04T06:19:33.015Z,7.45
2022-10-04T06:20:33.013Z,7.47
2022-10-04T06:21:33.040Z,7.47
2022-10-04T06:22:33.029Z,7.48
2022-10-04T06:23:33.043Z,7.50
2022-10-04T06:24:33.007Z,7.50
2022-10-04T06:25:32.965Z,7.53
2022-10-04T06:26:32.969Z,7.56
2022-10-04T06:27:32.961Z,7.58
2022-10-04T06:28:32.990Z,7.60
2022-10-04T06:29:32.966Z,7.63
2022-10-04T06:30:33.026Z,7.63
2022-10-04T06:31:32.950Z,7.66
2022-10-04T06:32:32.906Z,7.67
2022-10-04T06:33:32.905Z,7.69
2022-10-04T06:34:32.898Z,7.70
2022-10-04T06:35:32.863Z,7.73
2022-10-04T06:36:32.888Z,7.72
2022-10-04T06:37:32.889Z,7.75
2022-10-04T06:38:32.858Z,7.75
2022-10-04T06:39:32.827Z,7.75
2022-10-04T06:40:32.839Z,7.77
2022-10-04T06:41:32.818Z,7.79
2022-10-04T06:42:32.783Z,7.82
2022-10-04T06:43:32.812Z,7.83
2022-10-04T06:44:32.774Z,7.87
2022-10-04T06:45:32.778Z,7.91
2022-10-04T06:46:32.857Z,7.94
2022-10-04T06:47:32.772Z,7.95
2022-10-04T06:48:32.752Z,8.03
2022-10-04T06:49:32.715Z,8.06
2022-10-04T06:50:32.734Z,8.09
2022-10-04T06:51:32.716Z,8.15
2022-10-04T06:52:32.705Z,8.16
2022-10-04T06:53:32.715Z,8.20
2022-10-04T06:54:32.683Z,8.27
2022-10-04T06:55:32.713Z,8.31
2022-10-04T06:56:32.665Z,8.34
2022-10-04T06:57:32.673Z,8.41
2022-10-04T06:58:32.636Z,8.42
2022-10-04T06:59:32.646Z,8.46
2022-10-04T07:00:32.613Z,8.51
2022-10-04T07:01:32.682Z,8.53
2022-10-04T07:02:32.681Z,8.58
2022-10-04T07:03:32.593Z,8.63
2022-10-04T07:04:50.016Z,8.67
2022-10-04T07:05:32.591Z,8.73
2022-10-04T07:06:32.542Z,8.76
2022-10-04T07:07:32.560Z,8.81
2022-10-04T07:08:32.532Z,8.84
2022-10-04T07:09:32.531Z,8.88
2022-10-04T07:10:32.533Z,8.92
2022-10-04T07:11:32.502Z,8.95
2022-10-04T07:12:32.484Z,9.03
2022-10-04T07:13:32.511Z,9.10
2022-10-04T07:14:32.497Z,9.13
2022-10-04T07:15:32.516Z,9.18
2022-10-04T07:16:32.430Z,9.21
2022-10-04T07:17:32.461Z,9.26
2022-10-04T07:18:32.437Z,9.31
2022-10-04T07:19:32.447Z,9.34
2022-10-04T07:20:32.420Z,9.37
2022-10-04T07:21:32.392Z,9.44
2022-10-04T07:22:32.389Z,9.48
2022-10-04T07:23:32.376Z,9.54
2022-10-04T07:24:32.383Z,9.58
2022-10-04T07:25:32.393Z,9.61
2022-10-04T07:26:32.346Z,9.64
2022-10-04T07:27:32.366Z,9.66
2022-10-04T07:28:32.402Z,9.72
2022-10-04T07:29:32.331Z,9.76
2022-10-04T07:30:32.289Z,9.77
2022-10-04T07:31:32.313Z,9.79
2022-10-04T07:32:32.296Z,9.84
2022-10-04T07:33:32.305Z,9.87
2022-10-04T07:34:32.334Z,9.91
2022-10-04T07:35:32.302Z,9.97
2022-10-04T07:36:32.308Z,9.98
2022-10-04T07:37:32.262Z,10.01
2022-10-04T07:38:32.243Z,10.04
2022-10-04T07:39:32.249Z,10.10
2022-10-04T07:40:32.211Z,10.15
2022-10-04T07:41:32.237Z,10.19
2022-10-04T07:42:32.211Z,10.25
2022-10-04T07:43:32.175Z,10.28
2022-10-04T07:44:32.178Z,10.33
2022-10-04T07:45:32.165Z,10.35
2022-10-04T07:46:32.225Z,10.40
2022-10-04T07:47:32.155Z,10.41
2022-10-04T07:48:32.123Z,10.44
2022-10-04T07:49:32.114Z,10.49
2022-10-04T07:50:32.119Z,10.51
2022-10-04T07:51:32.111Z,10.53
2022-10-04T07:52:32.172Z,10.56
2022-10-04T07:53:32.061Z,10.57
2022-10-04T07:54:32.097Z,10.57
2022-10-04T07:55:32.065Z,10.59
2022-10-04T07:56:32.036Z,10.59
2022-10-04T07:57:32.113Z,10.57
2022-10-04T07:58:32.035Z,10.59
2022-10-04T07:59:32.003Z,10.59
2022-10-04T08:00:32.364Z,10.57
2022-10-04T08:01:32.064Z,10.59
2022-10-04T08:02:32.097Z,10.61
2022-10-04T08:03:32.085Z,10.68
2022-10-04T08:04:31.956Z,10.71
2022-10-04T08:05:31.945Z,10.72
2022-10-04T08:06:31.948Z,10.74
2022-10-04T08:07:31.923Z,10.74
2022-10-04T08:08:31.899Z,10.74
2022-10-04T08:09:31.913Z,10.79
2022-10-04T08:10:31.892Z,10.84
2022-10-04T08:11:31.902Z,10.86
2022-10-04T08:12:31.903Z,10.82
2022-10-04T08:13:31.867Z,10.82
2022-10-04T08:14:31.831Z,10.81
2022-10-04T08:15:31.871Z,10.82
2022-10-04T08:16:31.810Z,10.84
2022-10-04T08:17:31.839Z,10.94
2022-10-04T08:18:31.828Z,11.08
2022-10-04T08:19:31.803Z,11.19
2022-10-04T08:20:31.756Z,11.35
2022-10-04T08:21:31.784Z,11.44
2022-10-04T08:22:32.079Z,11.57
2022-10-04T08:23:31.776Z,11.70
2022-10-04T08:24:31.730Z,11.84
2022-10-04T08:25:31.749Z,11.97
2022-10-04T08:26:31.720Z,12.10
2022-10-04T08:27:31.714Z,12.24
2022-10-04T08:28:31.764Z,12.32
2022-10-04T08:29:31.678Z,12.45
2022-10-04T08:30:31.691Z,12.55
2022-10-04T08:31:31.765Z,12.62
2022-10-04T08:32:31.646Z,12.72
2022-10-04T08:33:31.658Z,12.83
2022-10-04T08:34:31.618Z,12.93
2022-10-04T08:35:31.668Z,13.01
2022-10-04T08:36:31.605Z,13.13
2022-10-04T08:37:31.625Z,13.25
2022-10-04T08:38:31.623Z,13.37
2022-10-04T08:39:31.596Z,13.49
2022-10-04T08:40:31.580Z,13.57
2022-10-04T08:41:31.565Z,13.62
2022-10-04T08:42:31.547Z,13.63
2022-10-04T08:43:31.540Z,13.67
2022-10-04T08:44:31.509Z,13.71
2022-10-04T08:45:31.569Z,13.74
2022-10-04T08:46:31.606Z,13.77
2022-10-04T08:47:31.509Z,13.81
2022-10-04T08:48:31.484Z,13.89
2022-10-04T08:49:31.483Z,13.95
2022-10-04T08:50:31.457Z,14.03
2022-10-04T08:51:31.459Z,14.08
2022-10-04T08:52:31.447Z,14.12
2022-10-04T08:53:31.460Z,14.18
2022-10-04T08:54:31.429Z,14.22
2022-10-04T08:55:31.826Z,14.30
2022-10-04T08:56:31.463Z,14.37
2022-10-04T08:57:31.440Z,14.45
2022-10-04T08:58:31.471Z,14.54
2022-10-04T08:59:31.697Z,14.63
2022-10-04T09:00:31.390Z,14.73
2022-10-04T09:01:31.710Z,14.86
2022-10-04T09:02:31.399Z,14.96
2022-10-04T09:03:31.369Z,14.99
2022-10-04T09:04:31.596Z,15.09
2022-10-04T09:05:31.364Z,15.19
2022-10-04T09:06:31.355Z,15.28
2022-10-04T09:07:31.492Z,15.37
2022-10-04T09:08:54.086Z,15.46
2022-10-04T09:09:38.881Z,15.58
2022-10-04T09:10:52.979Z,15.65
2022-10-04T09:11:31.318Z,15.70
2022-10-04T09:13:47.324Z,-39.78
2022-10-04T09:14:48.023Z,-39.78
2022-10-04T09:15:47.717Z,-39.78
2022-10-04T09:16:47.717Z,-39.78
2022-10-04T09:17:47.675Z,-39.78
2022-10-04T09:18:47.656Z,-39.78
2022-10-04T09:19:47.647Z,-39.78
2022-10-04T09:20:47.641Z,-39.78
2022-10-04T09:21:47.633Z,-39.78
2022-10-04T09:22:47.564Z,-39.78
2022-10-04T09:23:47.638Z,-39.78
2022-10-04T09:24:47.560Z,-39.78
2022-10-04T09:25:47.572Z,-39.78
2022-10-04T09:26:47.588Z,-39.78
2022-10-04T09:27:55.073Z,-39.78
2022-10-04T09:28:47.578Z,-39.78
2022-10-04T09:29:47.528Z,-39.78
2022-10-04T09:30:47.551Z,-39.78
2022-10-04T09:31:47.479Z,-39.78
2022-10-04T09:32:47.450Z,-39.78
2022-10-04T09:33:47.483Z,-39.78
2022-10-04T09:34:47.426Z,-39.78
2022-10-04T09:35:47.481Z,-39.78
2022-10-04T09:36:47.470Z,-39.78
2022-10-04T09:37:47.429Z,-39.78
2022-10-04T09:38:47.388Z,-39.78
2022-10-04T09:39:47.480Z,-39.78
2022-10-04T09:40:47.540Z,-39.78
2022-10-04T09:41:47.418Z,-39.78
2022-10-04T09:42:47.373Z,-39.78
2022-10-04T09:43:47.497Z,-39.78
2022-10-04T09:44:47.427Z,-39.78
2022-10-04T09:45:47.361Z,-39.78
2022-10-04T09:46:47.796Z,-39.78
2022-10-04T09:47:47.343Z,-39.78
2022-10-04T09:48:47.314Z,-39.78
2022-10-04T09:49:47.470Z,-39.78
2022-10-04T09:50:47.307Z,-39.78
2022-10-04T09:51:47.272Z,-39.78
2022-10-04T09:52:47.245Z,-39.78
2022-10-04T09:53:47.309Z,-39.78
2022-10-04T09:54:47.281Z,-39.78
2022-10-04T09:55:47.271Z,-39.78
2022-10-04T09:56:47.317Z,-39.78
2022-10-04T09:57:47.893Z,-39.78
2022-10-04T09:58:47.199Z,-39.78
2022-10-04T09:59:47.304Z,-39.78
2022-10-04T10:00:47.182Z,-39.78
2022-10-04T10:01:47.304Z,-39.78
2022-10-04T10:02:47.183Z,-39.78
2022-10-04T10:03:47.209Z,-39.78
2022-10-04T10:04:47.280Z,-39.78
2022-10-04T10:05:47.134Z,-39.78
2022-10-04T10:06:47.295Z,-39.78
2022-10-04T10:07:47.101Z,-39.78
2022-10-04T10:08:47.161Z,-39.78
2022-10-04T10:09:47.093Z,-39.78
2022-10-04T10:10:47.114Z,-39.78
2022-10-04T10:11:47.132Z,-39.78
2022-10-04T10:12:47.103Z,-39.78
2022-10-04T10:13:47.138Z,-39.78
2022-10-04T10:14:47.016Z,-39.78
2022-10-04T10:15:47.123Z,-39.78
2022-10-04T10:16:47.116Z,-39.78
2022-10-04T10:17:47.005Z,-39.78
2022-10-04T10:18:47.226Z,-39.78
2022-10-04T10:19:46.988Z,-39.78
2022-10-04T10:20:46.970Z,-39.78
2022-10-04T10:21:46.959Z,-39.78
2022-10-04T10:22:46.985Z,-39.78
2022-10-04T10:23:47.042Z,-39.78
2022-10-04T10:24:46.919Z,-39.78
2022-10-04T10:25:46.992Z,-39.78
2022-10-04T10:26:47.138Z,-39.78
2022-10-04T10:27:46.946Z,-39.78
2022-10-04T10:28:46.902Z,-39.78
2022-10-04T10:29:46.865Z,-39.78
2022-10-04T10:30:46.992Z,-39.78
2022-10-04T10:31:47.940Z,-39.78
2022-10-04T10:32:46.870Z,-39.78
2022-10-04T10:33:46.837Z,-39.78
2022-10-04T10:34:46.809Z,-39.78
2022-10-04T10:35:46.827Z,-39.78
2022-10-04T10:36:47.275Z,-39.78
2022-10-04T10:37:46.858Z,-39.78
2022-10-04T10:38:46.925Z,-39.78
2022-10-04T10:39:46.801Z,-39.78
2022-10-04T10:40:46.769Z,-39.78
2022-10-04T10:41:46.785Z,-39.78
2022-10-04T10:42:46.865Z,-39.78
2022-10-04T10:43:46.757Z,-39.78
2022-10-04T10:44:46.842Z,-39.78
2022-10-04T10:45:46.764Z,-39.78
2022-10-04T10:46:47.105Z,-39.78
2022-10-04T10:47:46.735Z,-39.78
2022-10-04T10:48:46.697Z,-39.78
2022-10-04T10:49:46.693Z,-39.78
2022-10-04T10:50:46.690Z,-39.78
2022-10-04T10:51:49.116Z,-39.78
2022-10-04T10:54:00.864Z,-39.78
2022-10-04T10:54:05.899Z,-39.78
2022-10-04T10:55:05.907Z,-39.78
2022-10-04T10:56:05.857Z,-39.78
2022-10-04T10:57:05.939Z,-39.78
2022-10-04T10:58:05.852Z,-39.78
2022-10-04T10:59:05.789Z,-39.78
2022-10-04T11:00:05.822Z,-39.78
2022-10-04T11:01:05.808Z,-39.78
2022-10-04T11:02:05.968Z,-39.78
2022-10-04T11:03:13.043Z,-39.78
2022-10-04T11:04:05.826Z,-39.78
2022-10-04T11:05:05.776Z,-39.78
2022-10-04T11:06:05.826Z,-39.78
2022-10-04T11:07:05.710Z,-39.78
2022-10-04T11:08:05.797Z,-39.78
2022-10-04T11:09:05.968Z,-39.78
2022-10-04T11:10:05.726Z,-39.78
2022-10-04T11:11:05.690Z,-39.78
2022-10-04T11:12:05.690Z,-39.78
2022-10-04T11:13:05.648Z,-39.78
2022-10-04T11:14:05.684Z,-39.78
2022-10-04T11:15:05.630Z,-39.78
2022-10-04T11:16:05.674Z,-39.78
2022-10-04T11:17:05.693Z,-39.78
2022-10-04T11:18:05.668Z,-39.78
2022-10-04T11:19:05.605Z,-39.78
2022-10-04T11:20:05.570Z,-39.78
2022-10-04T11:21:05.665Z,-39.78
2022-10-04T11:22:05.560Z,-39.78
2022-10-04T11:23:05.555Z,-39.78
2022-10-04T11:24:05.643Z,-39.78
2022-10-04T11:25:05.747Z,-39.78
2022-10-04T11:26:05.599Z,-39.78
2022-10-04T11:27:05.594Z,-39.78
2022-10-04T11:28:05.717Z,-39.78
2022-10-04T11:29:05.560Z,-39.78
2022-10-04T11:30:05.475Z,-39.78
2022-10-04T11:31:05.566Z,-39.78
2022-10-04T11:32:05.452Z,-39.78
2022-10-04T11:33:05.587Z,-39.78
2022-10-04T11:34:05.492Z,-39.78
2022-10-04T11:35:05.430Z,-39.78
2022-10-04T11:36:05.550Z,-39.78
2022-10-04T11:37:05.551Z,-39.78
2022-10-04T11:38:05.516Z,-39.78
2022-10-04T11:39:05.516Z,-39.78
2022-10-04T11:40:05.492Z,-39.78
2022-10-04T11:41:05.457Z,-39.78
2022-10-04T11:42:05.369Z,-39.78
2022-10-04T11:43:05.424Z,-39.78
2022-10-04T11:44:05.408Z,-39.78
2022-10-04T11:45:05.368Z,-39.78
2022-10-04T11:46:10.489Z,-39.78
2022-10-04T11:47:05.411Z,-39.78
2022-10-04T11:48:09.793Z,-39.78
2022-10-04T11:49:14.704Z,-39.78
2022-10-04T11:50:05.418Z,-39.78
2022-10-04T11:51:05.331Z,-39.78
2022-10-04T11:52:05.320Z,-39.78
2022-10-04T11:53:05.545Z,-39.78
2022-10-04T11:54:05.331Z,-39.78
2022-10-04T11:55:05.310Z,-39.78
2022-10-04T11:56:05.259Z,-39.78
2022-10-04T11:57:05.224Z,-39.78
2022-10-04T11:58:09.716Z,-39.78
2022-10-04T11:59:05.227Z,-39.78
2022-10-04T12:00:05.318Z,-39.78
2022-10-04T12:01:05.319Z,-39.78
2022-10-04T12:02:05.499Z,-39.78
2022-10-04T12:03:05.339Z,-39.78
2022-10-04T12:04:05.287Z,-39.78
2022-10-04T12:05:05.160Z,-39.78
2022-10-04T12:06:05.256Z,-39.78
2022-10-04T12:07:05.202Z,-39.78
2022-10-04T12:08:05.185Z,-39.78
2022-10-04T12:09:05.257Z,-39.78
2022-10-04T12:10:05.202Z,-39.78
2022-10-04T12:11:05.701Z,-39.78
2022-10-04T12:12:05.302Z,-39.78
2022-10-04T12:13:05.117Z,-39.78
2022-10-04T12:14:05.105Z,-39.78
2022-10-04T12:15:05.255Z,-39.78
2022-10-04T12:16:05.234Z,-39.78
2022-10-04T12:17:05.334Z,-39.78
2022-10-04T12:18:05.050Z,-39.78
2022-10-04T12:19:05.273Z,-39.78
2022-10-04T12:20:09.884Z,-39.78
2022-10-04T12:21:05.062Z,-39.78
2022-10-04T12:22:05.108Z,-39.78
2022-10-04T12:23:05.068Z,-39.78
2022-10-04T12:24:05.268Z,-39.78
2022-10-04T12:25:05.120Z,-39.78
2022-10-04T12:26:04.981Z,-39.78
2022-10-04T12:27:04.959Z,-39.78
2022-10-04T12:28:05.113Z,-39.78
2022-10-04T12:29:04.995Z,-39.78
2022-10-04T12:30:04.975Z,-39.78
2022-10-04T12:31:05.432Z,-39.78
2022-10-04T12:32:04.967Z,-39.78
2022-10-04T12:33:04.866Z,-39.78
2022-10-04T12:34:04.944Z,-39.78
2022-10-04T12:35:04.871Z,-39.78
2022-10-04T12:36:04.842Z,-39.78
2022-10-04T12:37:04.857Z,-39.78
2022-10-04T12:38:04.843Z,-39.78
2022-10-04T12:39:04.834Z,-39.78
2022-10-04T12:40:04.944Z,-39.78
2022-10-04T12:41:04.821Z,-39.78
2022-10-04T12:42:04.794Z,-39.78
2022-10-04T12:43:04.781Z,-39.78
2022-10-04T12:44:06.698Z,-39.78
2022-10-04T12:45:05.533Z,-39.78
2022-10-04T12:46:04.840Z,-39.78
2022-10-04T12:47:04.905Z,-39.78
2022-10-04T12:48:04.775Z,-39.78
2022-10-04T12:49:04.723Z,-39.78
2022-10-04T12:50:04.759Z,-39.78
2022-10-04T12:51:04.711Z,-39.78
2022-10-04T12:52:04.754Z,-39.78
2022-10-04T12:53:04.686Z,-39.78
2022-10-04T12:54:04.700Z,-39.78
2022-10-04T12:55:04.668Z,-39.78
2022-10-04T12:56:04.683Z,-39.78
2022-10-04T12:57:04.874Z,-39.78
2022-10-04T12:58:04.674Z,-39.78
2022-10-04T12:59:04.639Z,-39.78
2022-10-04T13:00:04.630Z,-39.78
2022-10-04T13:01:04.693Z,-39.78
2022-10-04T13:02:04.686Z,-39.78
2022-10-04T13:03:04.657Z,-39.78
2022-10-04T13:04:04.662Z,-39.78